Time;durP1;ratioP1;P1;durP2;ratioP2;P2;SDS_P1;SDS_P2;PMS_P1;PMS_P2;Temp;Humidity;BMP_temperature;BMP_pressure;BME280_temperature;BME280_humidity;BME280_pressure;Samples;Min_cycle;Max_cycle;Signal;HPM_P1;HPM_P2
2021/12/05 00:24:01;;;;;;;38.10;20.13;;;;;;;-4.93;80.22;94805.67;1792293;79;21105;-72
2021/12/05 00:26:30;;;;;;;41.57;20.30;;;;;;;-4.77;79.63;94804.80;1765142;81;21086;-72
2021/12/05 00:29:15;;;;;;;39.83;20.00;;;;;;;-4.84;78.80;94799.50;1787054;80;21495;-72
2021/12/05 00:31:52;;;;;;;38.97;19.10;;;;;;;-4.90;78.91;94805.75;1791667;80;21477;-73
2021/12/05 00:35:25;;;;;;;58.00;28.90;;;;;;;-4.88;78.83;94812.23;1776196;80;20986;-73
2021/12/05 00:47:32;;;;;;;33.70;16.63;;;;;;;-4.79;79.64;94804.73;1776022;80;21015;-73
2021/12/05 01:03:37;;;;;;;40.08;19.42;;;;;;;-4.78;79.78;94800.07;1746938;80;21011;-73
2021/12/05 01:06:27;;;;;;;29.00;15.07;;;;;;;-4.71;79.24;94803.27;1748909;80;21054;-73
2021/12/05 01:08:38;;;;;;;20.63;10.53;;;;;;;-4.80;79.65;94803.02;1777701;80;21049;-73
2021/12/05 01:11:09;;;;;;;31.77;15.00;;;;;;;-4.84;79.55;94802.07;1767326;80;21502;-73
2021/12/05 01:13:35;;;;;;;34.57;17.07;;;;;;;-4.90;80.21;94799.31;1774640;79;21031;-73
2021/12/05 01:16:09;;;;;;;27.77;15.33;;;;;;;-4.77;80.18;94798.36;1783896;79;21027;-73
2021/12/05 01:18:37;;;;;;;25.57;12.60;;;;;;;-4.64;80.16;94790.13;1779587;78;21082;-73
2021/12/05 01:21:10;;;;;;;15.47;8.30;;;;;;;-4.48;80.48;94792.28;1756600;81;21165;-73
2021/12/05 01:23:54;;;;;;;13.93;8.03;;;;;;;-4.29;80.66;94795.30;1775925;79;21029;-73
2021/12/05 01:26:21;;;;;;;16.97;8.33;;;;;;;-4.24;79.42;94785.56;1786895;80;21108;-73
2021/12/05 01:36:40;;;;;;;29.30;15.33;;;;;;;-4.37;79.84;94780.53;1780864;79;21014;-73
2021/12/05 01:39:21;;;;;;;36.80;18.50;;;;;;;-4.30;79.68;94777.70;1790258;80;21501;-73
2021/12/05 01:50:11;;;;;;;37.23;18.60;;;;;;;-4.03;78.53;94774.03;1780881;80;21021;-72
2021/12/05 01:52:35;;;;;;;36.23;19.90;;;;;;;-4.03;78.44;94765.91;1737058;81;21551;-72
2021/12/05 02:08:06;;;;;;;30.47;15.90;;;;;;;-4.06;78.28;94754.22;1787159;80;20994;-73
2021/12/05 02:16:16;;;;;;;40.30;18.90;;;;;;;-4.00;78.40;94753.09;1771677;80;21033;-73
2021/12/05 02:45:29;;;;;;;37.23;19.17;;;;;;;-3.77;78.57;94748.45;1779381;80;21066;-72
2021/12/05 02:47:56;;;;;;;35.40;18.97;;;;;;;-3.68;78.27;94749.48;1784162;80;21030;-73
2021/12/05 02:50:27;;;;;;;40.33;19.37;;;;;;;-3.67;78.11;94746.95;1771829;80;21511;-73
2021/12/05 02:52:59;;;;;;;38.60;19.60;;;;;;;-3.67;78.08;94739.22;1771612;80;21460;-73
2021/12/05 02:55:35;;;;;;;61.57;35.20;;;;;;;-3.68;78.16;94744.33;1778142;80;21065;-73
2021/12/05 02:58:00;;;;;;;37.20;19.80;;;;;;;-3.76;77.98;94742.87;1775999;79;21073;-73
2021/12/05 03:00:47;;;;;;;38.17;19.50;;;;;;;-3.65;78.43;94745.28;1788547;80;21485;-73
2021/12/05 03:03:24;;;;;;;37.33;20.43;;;;;;;-3.65;78.17;94736.27;1773274;80;20986;-72
2021/12/05 03:05:59;;;;;;;57.93;26.90;;;;;;;-3.70;78.39;94747.76;1749130;81;21491;-73
2021/12/05 03:08:23;;;;;;;60.97;28.33;;;;;;;-3.75;78.76;94745.50;1771872;80;21069;-73
2021/12/05 03:10:52;;;;;;;54.63;26.07;;;;;;;-3.71;79.01;94742.55;1784949;80;21536;-73
2021/12/05 03:13:19;;;;;;;52.97;24.70;;;;;;;-3.60;79.14;94740.23;1783160;80;21014;-73
2021/12/05 03:15:46;;;;;;;50.00;24.07;;;;;;;-3.48;79.12;94744.33;1784565;80;21022;-72
2021/12/05 03:18:13;;;;;;;54.30;25.57;;;;;;;-3.45;78.46;94740.55;1784601;79;21503;-72
2021/12/05 03:20:41;;;;;;;60.70;28.30;;;;;;;-3.47;78.50;94742.22;1784738;80;21009;-72
2021/12/05 03:23:08;;;;;;;55.33;27.93;;;;;;;-3.46;78.44;94737.93;1781429;80;21528;-72
2021/12/05 03:25:35;;;;;;;52.40;24.57;;;;;;;-3.41;78.54;94739.76;1773857;80;21042;-72
2021/12/05 03:28:04;;;;;;;42.90;23.30;;;;;;;-3.41;78.65;94731.16;1786039;80;21079;-72
2021/12/05 03:30:32;;;;;;;47.50;25.17;;;;;;;-3.44;78.82;94723.36;1781034;80;21511;-72
2021/12/05 03:32:59;;;;;;;56.17;26.47;;;;;;;-3.47;79.07;94719.02;1789445;79;21015;-72
2021/12/05 03:35:29;;;;;;;50.73;25.97;;;;;;;-3.49;78.98;94729.28;1772243;80;20997;-72
2021/12/05 03:37:58;;;;;;;50.43;27.50;;;;;;;-3.41;78.67;94722.12;1787785;80;21026;-72
2021/12/05 03:40:28;;;;;;;60.00;30.27;;;;;;;-3.49;78.40;94720.69;1786864;80;21026;-72
2021/12/05 03:43:00;;;;;;;50.40;25.87;;;;;;;-3.54;79.62;94714.14;1792878;79;21548;-72
2021/12/05 03:45:34;;;;;;;42.23;23.83;;;;;;;-3.44;79.78;94717.78;1782569;79;21033;-71
2021/12/05 03:48:03;;;;;;;41.83;20.57;;;;;;;-3.40;79.82;94709.67;1758384;80;21009;-72
2021/12/05 03:50:32;;;;;;;44.67;22.40;;;;;;;-3.29;79.87;94708.20;1776264;80;21021;-72
2021/12/05 03:53:01;;;;;;;41.37;21.10;;;;;;;-3.23;79.54;94722.48;1776184;79;21023;-72
2021/12/05 03:55:28;;;;;;;40.33;21.13;;;;;;;-3.11;79.40;94715.42;1786592;80;21015;-72
2021/12/05 03:57:57;;;;;;;45.37;22.90;;;;;;;-3.15;78.98;94706.77;1788236;80;21086;-72
2021/12/05 04:00:31;;;;;;;39.83;23.33;;;;;;;-3.09;79.28;94715.03;1773239;80;21061;-72
2021/12/05 04:03:02;;;;;;;42.80;22.23;;;;;;;-2.95;79.24;94717.86;1778788;80;21030;-72
2021/12/05 04:05:34;;;;;;;44.93;22.37;;;;;;;-2.88;79.08;94709.39;1769870;80;21096;-72
2021/12/05 04:08:10;;;;;;;37.70;20.30;;;;;;;-2.87;78.52;94701.69;1790115;80;21027;-72
2021/12/05 04:10:41;;;;;;;38.80;20.67;;;;;;;-2.80;78.43;94703.08;1774466;80;21487;-72
2021/12/05 04:13:08;;;;;;;41.17;21.97;;;;;;;-2.85;78.03;94711.63;1748310;81;21063;-71
2021/12/05 04:15:36;;;;;;;34.37;20.53;;;;;;;-2.92;78.22;94708.48;1787243;80;21493;-72
2021/12/05 04:18:04;;;;;;;37.03;20.23;;;;;;;-2.92;78.56;94705.04;1778954;80;21087;-72
2021/12/05 04:20:32;;;;;;;40.57;19.80;;;;;;;-2.92;79.01;94708.48;1784800;80;21034;-71
2021/12/05 04:22:58;;;;;;;41.40;20.47;;;;;;;-2.82;79.29;94709.52;1778324;80;21534;-72
2021/12/05 04:25:26;;;;;;;33.33;18.70;;;;;;;-2.72;79.09;94701.09;1775493;79;20982;-72
2021/12/05 04:27:55;;;;;;;34.50;18.17;;;;;;;-2.71;78.38;94704.55;1792276;79;21033;-72
2021/12/05 04:30:25;;;;;;;34.50;19.70;;;;;;;-2.71;78.61;94699.38;1782838;79;21013;-72
2021/12/05 04:32:54;;;;;;;53.40;28.50;;;;;;;-2.68;78.48;94698.13;1771011;79;21058;-72
2021/12/05 04:35:21;;;;;;;52.43;26.97;;;;;;;-2.73;78.42;94698.05;1779281;79;21065;-72
2021/12/05 04:37:50;;;;;;;50.77;26.83;;;;;;;-2.71;78.83;94691.63;1780652;79;20994;-72
2021/12/05 04:40:17;;;;;;;44.97;22.90;;;;;;;-2.70;78.85;94687.77;1770092;79;21459;-72
2021/12/05 04:42:46;;;;;;;45.47;23.10;;;;;;;-2.81;79.12;94691.03;1779735;79;21531;-72
2021/12/05 04:45:22;;;;;;;43.27;23.07;;;;;;;-2.81;79.33;94695.77;1784531;79;21030;-72
2021/12/05 04:47:52;;;;;;;46.43;24.50;;;;;;;-2.73;79.48;94694.61;1780235;79;21504;-72
2021/12/05 04:50:20;;;;;;;46.67;24.83;;;;;;;-2.73;79.18;94699.34;1798149;79;21029;-72
2021/12/05 04:52:49;;;;;;;45.00;24.87;;;;;;;-2.71;79.30;94696.80;1781787;79;21017;-71
2021/12/05 04:55:17;;;;;;;37.83;21.27;;;;;;;-2.67;79.12;94690.43;1781447;79;21038;-72
2021/12/05 04:57:46;;;;;;;39.27;21.00;;;;;;;-2.64;79.20;94686.59;1789241;78;21101;-72
2021/12/05 05:00:26;;;;;;;46.10;23.23;;;;;;;-2.55;79.29;94687.16;1762775;80;21618;-72
2021/12/05 05:02:54;;;;;;;40.03;21.90;;;;;;;-2.51;79.02;94681.64;1774709;80;21006;-72
2021/12/05 05:05:21;;;;;;;40.30;21.73;;;;;;;-2.61;79.33;94683.20;1780944;80;21018;-72
2021/12/05 05:07:49;;;;;;;43.63;22.77;;;;;;;-2.71;79.13;94697.66;1785297;80;21065;-72
2021/12/05 05:10:21;;;;;;;40.30;22.27;;;;;;;-2.76;79.17;94691.55;1786789;80;20970;-72
2021/12/05 05:12:49;;;;;;;37.60;21.33;;;;;;;-2.71;80.18;94687.33;1793095;79;21049;-72
2021/12/05 05:15:22;;;;;;;40.43;23.10;;;;;;;-2.71;80.19;94700.67;1793004;80;21102;-72
2021/12/05 05:17:52;;;;;;;;;;;;;;;-2.71;80.48;94694.22;1774988;79;21017;-72
2021/12/05 05:20:25;;;;;;;43.63;23.73;;;;;;;-2.75;80.76;94700.16;1777309;79;20397;-72
2021/12/05 05:28:59;;;;;;;50.43;26.33;;;;;;;-2.61;81.32;94714.19;1784226;80;21061;-72
2021/12/05 05:47:36;;;;;;;50.40;25.83;;;;;;;-2.28;80.63;94718.18;1772898;80;21051;-71
2021/12/05 05:49:59;;;;;;;44.63;25.87;;;;;;;-2.37;81.17;94718.87;1768646;80;21557;-69
2021/12/05 05:52:30;;;;;;;45.17;26.57;;;;;;;-2.41;81.85;94714.53;1768856;79;20975;-72
2021/12/05 05:54:59;;;;;;;42.87;24.87;;;;;;;-2.34;81.87;94706.44;1769564;79;21027;-72
2021/12/05 05:57:43;;;;;;;41.20;24.83;;;;;;;-2.25;82.03;94708.75;1773755;80;21023;-71
2021/12/05 06:00:18;;;;;;;69.87;33.00;;;;;;;-2.26;81.64;94701.86;1767046;79;21540;-71
2021/12/05 06:05:33;;;;;;;194.37;80.40;;;;;;;-2.35;82.20;94701.70;1773954;80;20983;-72
2021/12/05 06:08:00;;;;;;;170.87;76.63;;;;;;;-2.34;82.48;94699.98;1775711;79;21077;-71
2021/12/05 06:10:30;;;;;;;163.47;72.87;;;;;;;-2.30;82.51;94705.66;1779970;80;20990;-72
2021/12/05 06:12:58;;;;;;;215.57;90.20;;;;;;;-2.19;82.66;94710.59;1791534;80;21066;-72
2021/12/05 06:15:29;;;;;;;120.20;56.93;;;;;;;-2.14;82.50;94710.23;1790887;80;21003;-72
2021/12/05 06:17:56;;;;;;;141.17;63.13;;;;;;;-2.07;82.26;94715.92;1783945;80;21033;-71
2021/12/05 06:20:27;;;;;;;75.57;35.97;;;;;;;-1.98;82.31;94707.02;1793803;80;21122;-71
2021/12/05 06:22:55;;;;;;;54.03;27.37;;;;;;;-1.86;82.31;94701.60;1785102;79;21061;-72
2021/12/05 06:25:27;;;;;;;35.90;20.20;;;;;;;-1.84;81.72;94708.53;1774731;80;21061;-72
2021/12/05 06:27:59;;;;;;;39.17;21.37;;;;;;;-1.82;81.66;94711.98;1785212;80;21073;-72
2021/12/05 06:30:39;;;;;;;39.97;21.40;;;;;;;-1.83;81.47;94721.89;1779830;80;21109;-72
2021/12/05 06:38:58;;;;;;;35.07;19.53;;;;;;;-1.78;81.10;94731.02;1776498;80;21075;-72
2021/12/05 06:46:20;;;;;;;28.37;16.13;;;;;;;-1.66;80.88;94727.31;1781652;80;21084;-72
2021/12/05 06:48:47;;;;;;;31.62;16.42;;;;;;;-1.65;80.75;94728.18;1778303;80;21066;-71
2021/12/05 06:51:18;;;;;;;29.13;16.60;;;;;;;-1.55;80.85;94734.78;1784384;80;21021;-72
2021/12/05 06:53:45;;;;;;;30.20;17.47;;;;;;;-1.44;80.84;94741.82;1774491;79;20990;-71
2021/12/05 06:56:12;;;;;;;24.63;14.37;;;;;;;-1.42;80.44;94737.54;1775689;80;21053;-72
2021/12/05 06:58:39;;;;;;;30.53;17.13;;;;;;;-1.46;79.82;94737.94;1784692;79;21068;-72
2021/12/05 07:01:09;;;;;;;54.93;27.87;;;;;;;-1.71;81.05;94735.44;1779847;80;21013;-71
2021/12/05 07:03:39;;;;;;;39.47;19.27;;;;;;;-1.63;81.23;94735.54;1771516;79;21025;-72
2021/12/05 07:08:40;;;;;;;56.57;28.93;;;;;;;-1.43;81.48;94737.97;1775779;79;21056;-72
2021/12/05 07:16:40;;;;;;;42.97;23.63;;;;;;;-1.24;81.52;94730.44;1763058;80;21014;-70
2021/12/05 07:26:35;;;;;;;28.33;16.23;;;;;;;-1.08;81.22;94744.03;1755924;81;21043;-72
2021/12/05 07:42:41;;;;;;;36.37;20.03;;;;;;;-1.11;80.71;94777.62;1782453;79;21017;-72
2021/12/05 07:45:10;;;;;;;29.20;15.47;;;;;;;-1.09;80.76;94773.34;1760883;81;21021;-71
2021/12/05 07:47:40;;;;;;;22.20;12.80;;;;;;;-1.09;80.88;94779.37;1789347;78;21517;-71
2021/12/05 07:50:10;;;;;;;21.90;12.47;;;;;;;-1.18;80.42;94771.52;1789317;80;20990;-71
2021/12/05 07:52:40;;;;;;;18.77;11.30;;;;;;;-1.12;80.64;94772.02;1774599;79;21022;-71
2021/12/05 07:55:16;;;;;;;23.23;12.20;;;;;;;-1.11;80.74;94782.40;1775647;79;21029;-71
2021/12/05 07:57:52;;;;;;;21.63;13.00;;;;;;;-1.09;80.62;94779.37;1776652;80;21061;-71
2021/12/05 08:00:23;;;;;;;21.80;13.10;;;;;;;-1.05;80.70;94772.54;1786570;79;21108;-72
2021/12/05 08:16:28;;;;;;;25.13;13.97;;;;;;;-0.66;80.18;94778.63;1797799;80;20988;-72
2021/12/05 08:18:54;;;;;;;27.10;15.60;;;;;;;-0.61;80.00;94776.48;1782004;79;21123;-72
2021/12/05 08:21:21;;;;;;;25.93;16.43;;;;;;;-0.64;80.16;94779.92;1762536;80;21095;-72
2021/12/05 08:23:49;;;;;;;29.83;17.80;;;;;;;-0.61;80.22;94774.77;1786039;79;21485;-72
2021/12/05 08:26:26;;;;;;;26.20;16.57;;;;;;;-0.46;80.68;94776.65;1794673;79;21012;-71
2021/12/05 08:29:01;;;;;;;27.57;16.40;;;;;;;-0.32;80.38;94784.15;1773907;80;21474;-71
2021/12/05 09:30:41;;;;;;;33.60;19.70;;;;;;;0.32;78.76;94762.21;1789468;80;21043;-71
2021/12/05 10:15:24;;;;;;;31.47;18.50;;;;;;;1.21;77.96;94749.30;1785514;80;21039;-71
2021/12/05 10:34:44;;;;;;;30.80;20.23;;;;;;;1.40;78.21;94725.52;1780720;80;21510;-72
2021/12/05 10:37:19;;;;;;;28.70;17.77;;;;;;;1.56;78.33;94710.80;1796187;80;20996;-71
2021/12/05 10:39:46;;;;;;;25.20;15.33;;;;;;;1.66;77.90;94703.89;1792560;80;21481;-71
2021/12/05 10:42:39;;;;;;;28.00;17.03;;;;;;;1.67;77.17;94701.74;1770240;79;21028;-72
2021/12/05 10:45:09;;;;;;;26.17;16.47;;;;;;;1.73;77.13;94703.89;1779379;80;20996;-70
2021/12/05 10:47:41;;;;;;;26.20;17.17;;;;;;;1.78;77.14;94696.55;1790858;80;21036;-71
2021/12/05 10:50:33;;;;;;;27.17;17.07;;;;;;;1.88;77.08;94690.04;1789817;80;21000;-72
2021/12/05 10:53:35;;;;;;;30.50;17.27;;;;;;;1.95;76.38;94689.61;1794452;79;21063;-71
2021/12/05 10:56:19;;;;;;;25.97;14.37;;;;;;;1.98;76.59;94678.34;1781039;80;21063;-71
2021/12/05 10:58:59;;;;;;;29.10;15.93;;;;;;;2.01;76.79;94673.98;1786280;80;20997;-71
2021/12/05 11:01:34;;;;;;;23.10;13.80;;;;;;;2.09;75.91;94673.57;1777918;80;21059;-72
2021/12/05 11:04:08;;;;;;;18.37;11.90;;;;;;;2.06;75.91;94677.45;1800357;80;21071;-72
2021/12/05 11:06:52;;;;;;;18.97;11.97;;;;;;;2.10;75.62;94676.59;1794471;79;21067;-72
2021/12/05 11:09:36;;;;;;;;;;;;;;;2.15;75.39;94677.90;1798201;79;21012;-72
2021/12/05 11:12:17;;;;;;;14.20;9.55;;;;;;;2.11;73.93;94678.31;1791635;80;20110;-72
2021/12/05 11:15:02;;;;;;;12.60;9.03;;;;;;;2.09;73.04;94676.17;1770702;80;21115;-72
2021/12/05 11:17:33;;;;;;;15.57;8.93;;;;;;;2.06;73.37;94672.25;1782159;80;21071;-72
2021/12/05 11:20:13;;;;;;;13.67;8.87;;;;;;;2.07;73.90;94673.14;1771283;80;21134;-72
2021/12/05 11:22:46;;;;;;;18.90;11.47;;;;;;;1.94;73.26;94676.16;1787591;80;21024;-72
2021/12/05 11:25:23;;;;;;;16.97;11.43;;;;;;;1.92;73.85;94685.28;1782183;79;21024;-71
2021/12/05 11:27:54;;;;;;;15.57;9.47;;;;;;;1.90;74.50;94680.50;1781166;80;21020;-71
2021/12/05 11:30:34;;;;;;;15.47;11.07;;;;;;;1.94;74.83;94674.45;1791181;80;21055;-71
2021/12/05 11:33:19;;;;;;;18.63;11.23;;;;;;;1.97;75.03;94668.81;1770364;80;21008;-72
2021/12/05 11:35:59;;;;;;;15.20;9.07;;;;;;;1.98;75.74;94666.20;1795227;80;21012;-72
2021/12/05 11:38:29;;;;;;;17.93;10.97;;;;;;;1.99;75.94;94666.64;1783136;79;21012;-71
2021/12/05 11:41:10;;;;;;;22.60;11.43;;;;;;;2.00;75.82;94661.86;1798993;79;20993;-71
2021/12/05 11:43:45;;;;;;;17.30;10.77;;;;;;;2.06;75.80;94654.48;1790265;79;21593;-72
2021/12/05 11:46:32;;;;;;;16.60;10.80;;;;;;;2.06;76.19;94659.23;1790736;80;21100;-72
2021/12/05 11:49:10;;;;;;;16.40;10.80;;;;;;;2.05;76.10;94654.06;1780311;80;21034;-72
2021/12/05 11:51:44;;;;;;;23.50;11.33;;;;;;;2.11;76.45;94655.34;1785451;80;21525;-70
2021/12/05 11:54:28;;;;;;;19.27;11.03;;;;;;;2.16;76.58;94651.85;1783076;80;21016;-71
2021/12/05 11:57:06;;;;;;;16.30;10.25;;;;;;;2.25;76.46;94647.52;1773744;79;21043;-72
2021/12/05 11:59:43;;;;;;;19.07;10.53;;;;;;;2.31;76.31;94639.69;1775380;79;21550;-72
2021/12/05 12:02:27;;;;;;;16.80;10.17;;;;;;;2.31;76.13;94645.75;1785170;80;21083;-72
2021/12/05 12:05:00;;;;;;;;;;;;;;;2.36;76.11;94634.03;1779165;80;21075;-72
2021/12/05 12:07:37;;;;;;;19.80;11.27;;;;;;;2.30;75.44;94631.46;1783398;79;20106;-72
2021/12/05 12:10:18;;;;;;;16.87;9.97;;;;;;;2.25;75.72;94639.27;1770231;80;21028;-72
2021/12/05 12:13:02;;;;;;;16.17;10.73;;;;;;;2.22;75.74;94634.08;1801025;80;21486;-72
2021/12/05 12:15:32;;;;;;;16.90;11.60;;;;;;;2.22;75.87;94633.19;1800579;80;21032;-72
2021/12/05 12:18:08;;;;;;;18.53;11.07;;;;;;;2.15;75.48;94637.13;1781753;80;21549;-72
2021/12/05 12:20:35;;;;;;;21.10;12.07;;;;;;;2.05;75.54;94639.75;1769998;80;21069;-72
2021/12/05 12:23:04;;;;;;;19.70;12.33;;;;;;;2.01;76.08;94650.57;1792041;80;21020;-71
2021/12/05 12:25:35;;;;;;;20.00;12.77;;;;;;;1.99;76.09;94643.23;1801436;80;21005;-72
2021/12/05 12:28:05;;;;;;;17.63;11.47;;;;;;;1.97;76.03;94650.16;1781518;80;21012;-72
2021/12/05 12:30:36;;;;;;;18.23;11.57;;;;;;;1.89;75.87;94649.28;1774944;80;21024;-72
2021/12/05 12:33:17;;;;;;;20.77;12.67;;;;;;;1.76;75.82;94649.72;1770552;80;21068;-71
2021/12/05 12:35:47;;;;;;;21.97;13.40;;;;;;;1.68;76.06;94648.42;1794825;79;21016;-72
2021/12/05 12:38:19;;;;;;;20.80;13.10;;;;;;;1.62;76.21;94643.23;1785928;80;21015;-72
2021/12/05 12:40:58;;;;;;;20.10;11.63;;;;;;;1.58;76.49;94640.18;1800305;80;21027;-72
2021/12/05 12:43:51;;;;;;;23.93;13.23;;;;;;;1.45;77.04;94638.01;1775397;79;21079;-72
2021/12/05 12:46:48;;;;;;;24.63;13.83;;;;;;;1.42;76.98;94646.25;1790222;80;21095;-72
2021/12/05 12:49:21;;;;;;;21.33;13.30;;;;;;;1.42;77.11;94640.61;1757719;80;21601;-72
2021/12/05 12:52:03;;;;;;;20.63;12.70;;;;;;;1.41;77.32;94634.10;1770324;79;21039;-72
2021/12/05 12:54:48;;;;;;;26.83;16.07;;;;;;;1.38;77.00;94635.41;1766469;80;21072;-72
2021/12/05 12:57:32;;;;;;;22.80;13.77;;;;;;;1.33;77.08;94637.13;1791234;79;21043;-71
2021/12/05 13:00:09;;;;;;;24.70;15.40;;;;;;;1.31;77.09;94638.45;1769898;80;21608;-73
2021/12/05 13:11:19;;;;;;;24.43;13.63;;;;;;;1.15;76.75;94631.03;1795435;79;21015;-72
2021/12/05 13:14:00;;;;;;;24.17;14.17;;;;;;;1.15;77.26;94633.63;1797697;80;21040;-72
2021/12/05 13:16:30;;;;;;;25.37;14.57;;;;;;;1.16;77.38;94638.39;1768880;80;21059;-72
2021/12/05 13:19:07;;;;;;;25.63;14.30;;;;;;;1.15;77.42;94636.67;1786514;79;21024;-71
2021/12/05 13:21:40;;;;;;;24.93;14.50;;;;;;;1.16;77.54;94635.80;1791337;80;21082;-72
2021/12/05 13:24:31;;;;;;;25.33;15.73;;;;;;;1.15;77.38;94629.73;1781005;80;21073;-72
2021/12/05 13:27:06;;;;;;;26.63;14.83;;;;;;;1.15;77.32;94631.47;1764258;80;21028;-73
2021/12/05 13:29:50;;;;;;;36.37;20.50;;;;;;;1.12;77.23;94629.73;1789923;80;21092;-72
2021/12/05 13:32:25;;;;;;;31.87;18.40;;;;;;;1.11;77.53;94630.61;1801202;80;21576;-72
2021/12/05 13:34:56;;;;;;;43.77;22.50;;;;;;;1.12;77.48;94645.77;1800987;80;21521;-72
2021/12/05 13:37:39;;;;;;;44.23;21.97;;;;;;;1.08;77.73;94640.57;1796024;80;21054;-72
2021/12/05 13:40:18;;;;;;;37.53;19.47;;;;;;;1.07;77.49;94629.72;1780808;80;21016;-73
2021/12/05 13:42:56;;;;;;;33.90;18.00;;;;;;;1.15;77.74;94628.88;1776797;80;21012;-72
2021/12/05 13:45:31;;;;;;;40.40;22.20;;;;;;;1.19;77.41;94625.44;1783558;80;21107;-72
2021/12/05 13:48:07;;;;;;;30.23;16.67;;;;;;;1.26;77.15;94631.05;1795966;79;21008;-70
2021/12/05 13:50:48;;;;;;;30.20;17.33;;;;;;;1.24;76.67;94633.66;1801982;80;21063;-71
2021/12/05 13:53:23;;;;;;;32.90;17.50;;;;;;;1.23;76.82;94633.20;1786733;80;21032;-73
2021/12/05 13:56:02;;;;;;;25.77;14.93;;;;;;;1.21;76.77;94636.27;1794237;79;21059;-72
2021/12/05 13:58:40;;;;;;;25.73;15.20;;;;;;;1.15;76.43;94631.47;1788226;80;21075;-73
2021/12/05 14:01:25;;;;;;;26.83;15.03;;;;;;;1.06;76.10;94637.53;1780103;80;21059;-71
2021/12/05 14:04:13;;;;;;;35.40;18.73;;;;;;;0.99;76.10;94634.05;1785166;80;21126;-72
2021/12/05 14:07:04;;;;;;;60.07;34.37;;;;;;;0.90;75.79;94637.90;1780014;79;21027;-73
2021/12/05 14:09:38;;;;;;;39.17;23.13;;;;;;;0.80;75.95;94644.78;1785456;80;21095;-73
2021/12/05 14:12:19;;;;;;;25.73;14.17;;;;;;;0.69;76.23;94643.03;1770638;80;21030;-72
2021/12/05 14:14:50;;;;;;;52.63;28.90;;;;;;;0.55;76.63;94647.72;1779768;79;21004;-73
2021/12/05 14:17:26;;;;;;;33.40;18.73;;;;;;;0.51;76.58;94649.02;1789033;79;21027;-73
2021/12/05 14:20:06;;;;;;;24.93;14.03;;;;;;;0.49;76.84;94645.55;1777799;80;21019;-73
2021/12/05 14:22:36;;;;;;;30.60;16.03;;;;;;;0.49;77.62;94652.03;1776351;80;21047;-73
2021/12/05 14:25:08;;;;;;;34.43;19.33;;;;;;;0.43;77.18;94649.84;1789828;79;21099;-73
2021/12/05 14:27:39;;;;;;;32.07;18.63;;;;;;;0.46;77.68;94642.94;1801027;80;21489;-72
2021/12/05 14:30:11;;;;;;;31.83;16.47;;;;;;;0.46;78.05;94651.59;1791419;79;21024;-73
2021/12/05 14:32:42;;;;;;;28.03;16.10;;;;;;;0.46;77.69;94655.92;1789682;80;21536;-73
2021/12/05 14:35:14;;;;;;;36.20;19.03;;;;;;;0.43;78.02;94659.36;1782299;80;21490;-71
2021/12/05 14:37:44;;;;;;;39.20;18.50;;;;;;;0.46;78.17;94658.08;1758620;80;21033;-72
2021/12/05 14:40:21;;;;;;;36.40;19.77;;;;;;;0.57;78.47;94651.63;1765253;80;21052;-73
2021/12/05 14:42:51;;;;;;;48.67;26.40;;;;;;;0.66;78.03;94658.61;1782340;80;21067;-73
2021/12/05 14:45:22;;;;;;;46.23;23.53;;;;;;;0.65;77.67;94657.71;1755806;80;21541;-72
2021/12/05 14:47:53;;;;;;;34.00;18.27;;;;;;;0.63;77.98;94651.23;1771369;80;21025;-73
2021/12/05 14:50:27;;;;;;;44.73;23.77;;;;;;;0.59;78.19;94647.31;1749043;80;21037;-72
2021/12/05 14:52:57;;;;;;;60.07;32.97;;;;;;;0.57;78.43;94639.52;1776360;80;21537;-73
2021/12/05 14:55:27;;;;;;;40.23;21.97;;;;;;;0.48;78.55;94645.98;1762093;80;21578;-73
2021/12/05 14:58:05;;;;;;;33.33;18.20;;;;;;;0.47;78.84;94636.88;1746605;80;21072;-73
2021/12/05 15:00:43;;;;;;;30.63;16.80;;;;;;;0.49;79.11;94645.11;1778831;80;20997;-73
2021/12/05 15:03:15;;;;;;;33.87;18.63;;;;;;;0.47;79.18;94652.45;1758092;80;21061;-72
2021/12/05 15:05:53;;;;;;;29.67;17.62;;;;;;;0.48;79.25;94655.47;1748623;80;21085;-72
2021/12/05 15:08:24;;;;;;;31.67;18.23;;;;;;;0.48;79.44;94643.79;1757642;80;21014;-72
2021/12/05 15:11:01;;;;;;;33.97;17.80;;;;;;;0.42;79.29;94631.22;1779397;80;21025;-73
2021/12/05 15:13:28;;;;;;;32.53;18.47;;;;;;;0.44;79.42;94628.65;1747370;80;21522;-67
2021/12/05 15:15:55;;;;;;;35.43;18.57;;;;;;;0.48;79.45;94639.89;1748920;80;21012;-72
2021/12/05 15:18:28;;;;;;;30.97;17.53;;;;;;;0.50;79.53;94648.13;1714033;80;21455;-71
2021/12/05 15:20:53;;;;;;;33.93;16.73;;;;;;;0.50;79.23;94660.24;1760347;80;21024;-72
2021/12/05 15:23:21;;;;;;;30.87;17.73;;;;;;;0.50;78.67;94652.45;1780027;80;21087;-71
2021/12/05 15:25:48;;;;;;;38.07;20.20;;;;;;;0.49;78.74;94652.89;1755675;80;21092;-72
2021/12/05 15:28:17;;;;;;;51.77;28.00;;;;;;;0.42;78.18;94649.39;1747987;80;21064;-71
2021/12/05 15:30:47;;;;;;;40.87;22.23;;;;;;;0.35;78.35;94648.05;1760226;80;21053;-71
2021/12/05 15:33:21;;;;;;;38.40;21.77;;;;;;;0.32;79.10;94644.16;1775137;80;21147;-70
2021/12/05 15:35:48;;;;;;;;;;;;;;;0.35;79.30;94648.05;1770865;80;21159;-71
2021/12/05 15:38:22;;;;;;;50.43;24.00;;;;;;;0.33;79.32;94657.15;1769673;80;20088;-73
2021/12/05 15:40:53;;;;;;;101.53;42.05;;;;;;;0.30;79.52;94661.00;1763532;80;21565;-71
2021/12/05 15:43:23;;;;;;;52.53;27.87;;;;;;;0.29;79.50;94668.36;1767109;80;20985;-72
2021/12/05 15:45:53;;;;;;;55.60;26.43;;;;;;;0.27;79.58;94666.17;1775311;80;21013;-72
2021/12/05 15:48:34;;;;;;;53.10;26.77;;;;;;;0.19;79.72;94671.75;1766633;80;21089;-72
2021/12/05 16:19:09;;;;;;;45.57;26.97;;;;;;;1.45;76.22;94652.75;1778675;81;22268;-76
2021/12/05 16:21:39;;;;;;;41.33;24.77;;;;;;;1.15;77.22;94660.91;1755179;82;21022;-75
2021/12/05 16:24:18;;;;;;;54.03;29.07;;;;;;;0.90;77.54;94653.92;1755146;82;21010;-76
2021/12/05 16:26:48;;;;;;;48.30;25.83;;;;;;;0.72;77.84;94659.48;1755195;82;21102;-76
2021/12/05 16:29:19;;;;;;;47.37;25.00;;;;;;;0.56;78.14;94661.16;1754947;82;21030;-76
2021/12/05 16:31:55;;;;;;;47.73;25.40;;;;;;;0.47;78.58;94660.23;1755086;82;21026;-76
2021/12/05 16:34:29;;;;;;;76.43;35.00;;;;;;;0.37;78.77;94667.09;1787058;80;21025;-76
2021/12/05 16:37:02;;;;;;;92.33;44.23;;;;;;;0.22;80.25;94678.25;1788201;80;21053;-76
2021/12/05 16:39:40;;;;;;;85.40;41.00;;;;;;;0.11;80.67;94669.55;1760896;81;21086;-77
2021/12/05 16:42:20;;;;;;;102.73;48.20;;;;;;;-0.03;81.47;94665.11;1760334;81;21066;-77
2021/12/05 16:44:52;;;;;;;92.20;43.40;;;;;;;-0.01;81.22;94656.92;1788313;80;21598;-76
2021/12/05 16:47:24;;;;;;;81.90;39.20;;;;;;;0.02;80.76;94669.04;1788301;80;21019;-76
2021/12/05 16:49:55;;;;;;;108.63;54.07;;;;;;;0.03;81.25;94681.61;1788107;80;21082;-76
2021/12/05 16:52:34;;;;;;;52.57;27.37;;;;;;;-0.04;81.61;94681.98;1788349;80;21073;-76
2021/12/05 16:55:20;;;;;;;62.70;35.10;;;;;;;0.04;81.41;94682.03;1788447;80;21082;-76
2021/12/05 16:57:45;;;;;;;44.33;23.77;;;;;;;0.14;81.30;94674.31;1786598;80;21011;-77
2021/12/05 17:00:15;;;;;;;50.17;24.73;;;;;;;0.18;81.07;94660.52;1787872;80;21073;-76
2021/12/05 17:02:51;;;;;;;61.33;32.50;;;;;;;0.23;81.10;94655.77;1788559;80;21062;-77
2021/12/05 17:05:28;;;;;;;57.08;28.17;;;;;;;0.30;80.69;94653.65;1788223;80;21090;-76
2021/12/05 17:08:13;;;;;;;41.43;21.20;;;;;;;0.24;80.47;94647.14;1787992;80;21595;-77
2021/12/05 17:10:49;;;;;;;42.97;22.47;;;;;;;0.16;80.44;94647.96;1786208;80;21548;-77
2021/12/05 17:13:30;;;;;;;62.80;33.30;;;;;;;0.08;80.75;94648.35;1788068;80;21078;-77
2021/12/05 17:16:17;;;;;;;65.63;31.37;;;;;;;0.09;80.70;94641.00;1788070;80;21079;-77
2021/12/05 17:19:06;;;;;;;63.30;33.13;;;;;;;0.07;81.27;94631.03;1787702;80;21059;-77
2021/12/05 17:21:50;;;;;;;67.77;35.50;;;;;;;0.12;82.19;94624.58;1787837;80;21496;-77
2021/12/05 17:24:22;;;;;;;;;;;;;;;0.14;82.26;94630.66;1790017;80;21027;-77
2021/12/05 17:27:03;;;;;;;74.93;37.37;;;;;;;0.07;82.62;94634.92;1757339;80;20099;-77
2021/12/05 17:29:43;;;;;;;99.87;52.60;;;;;;;0.08;82.35;94634.09;1768296;81;21081;-77
2021/12/05 17:32:19;;;;;;;113.03;56.83;;;;;;;0.09;81.98;94630.63;1767906;81;20975;-77